createdAt,value
2022-08-09T00:01:10.605Z,100.00
2022-08-09T00:04:10.346Z,100.00
2022-08-09T00:06:31.992Z,100.00
2022-08-09T00:08:58.688Z,100.00
2022-08-09T00:11:27.632Z,100.00
2022-08-09T00:14:17.455Z,100.00
2022-08-09T00:16:49.207Z,100.00
2022-08-09T00:19:18.446Z,100.00
2022-08-09T00:21:56.579Z,100.00
2022-08-09T00:24:24.727Z,100.00
2022-08-09T00:26:54.426Z,100.00
2022-08-09T00:29:39.800Z,100.00
2022-08-09T00:32:07.649Z,100.00
2022-08-09T00:34:34.201Z,100.00
2022-08-09T00:37:00.807Z,100.00
2022-08-09T00:40:12.112Z,100.00
2022-08-09T00:44:14.162Z,100.00
2022-08-09T00:45:03.640Z,100.00
2022-08-09T00:47:42.396Z,100.00
2022-08-09T00:50:14.509Z,100.00
2022-08-09T00:52:41.574Z,100.00
2022-08-09T00:55:09.046Z,100.00
2022-08-09T00:57:43.441Z,100.00
2022-08-09T01:00:21.969Z,100.00
2022-08-09T01:03:14.686Z,100.00
2022-08-09T01:05:54.122Z,100.00
2022-08-09T01:08:34.856Z,100.00
2022-08-09T01:11:03.634Z,100.00
2022-08-09T01:13:58.688Z,100.00
2022-08-09T01:16:30.169Z,100.00
2022-08-09T01:19:04.387Z,100.00
2022-08-09T01:22:12.296Z,100.00
2022-08-09T01:25:00.801Z,100.00
2022-08-09T01:27:29.225Z,100.00
2022-08-09T01:30:00.637Z,100.00
2022-08-09T01:32:34.512Z,100.00
2022-08-09T01:35:28.304Z,100.00
2022-08-09T01:38:10.828Z,100.00
2022-08-09T01:41:04.869Z,100.00
2022-08-09T01:43:50.746Z,100.00
2022-08-09T01:46:26.957Z,100.00
2022-08-09T01:48:57.444Z,100.00
2022-08-09T01:51:32.246Z,100.00
2022-08-09T01:54:01.415Z,100.00
2022-08-09T01:56:30.632Z,100.00
2022-08-09T01:59:01.497Z,100.00
2022-08-09T02:01:57.989Z,100.00
2022-08-09T02:04:19.210Z,100.00
2022-08-09T02:07:05.534Z,100.00
2022-08-09T02:09:42.071Z,100.00
2022-08-09T02:12:13.394Z,100.00
2022-08-09T02:14:51.733Z,100.00
2022-08-09T02:17:59.354Z,100.00
2022-08-09T02:20:10.723Z,100.00
2022-08-09T02:23:03.584Z,100.00
2022-08-09T02:25:42.589Z,100.00
2022-08-09T02:28:20.791Z,100.00
2022-08-09T02:31:15.653Z,100.00
2022-08-09T02:34:07.191Z,100.00
2022-08-09T02:36:44.719Z,100.00
2022-08-09T02:39:33.532Z,100.00
2022-08-09T02:42:10.491Z,100.00
2022-08-09T02:45:01.209Z,100.00
2022-08-09T02:47:33.876Z,100.00
2022-08-09T02:50:18.703Z,100.00
2022-08-09T02:52:55.590Z,100.00
2022-08-09T02:55:39.379Z,100.00
2022-08-09T02:58:35.439Z,100.00
2022-08-09T03:01:04.505Z,100.00
2022-08-09T03:04:12.529Z,100.00
2022-08-09T03:06:22.822Z,100.00
2022-08-09T03:08:53.260Z,100.00
2022-08-09T03:12:06.436Z,100.00
2022-08-09T03:14:10.632Z,100.00
2022-08-09T03:16:41.811Z,100.00
2022-08-09T03:19:52.501Z,100.00
2022-08-09T03:22:04.755Z,100.00
2022-08-09T03:24:52.341Z,100.00
2022-08-09T03:27:21.567Z,100.00
2022-08-09T03:29:57.637Z,100.00
2022-08-09T03:32:30.648Z,100.00
2022-08-09T03:34:58.401Z,100.00
2022-08-09T03:37:55.982Z,100.00
2022-08-09T03:40:13.326Z,100.00
2022-08-09T03:42:43.142Z,100.00
2022-08-09T03:45:10.861Z,100.00
2022-08-09T03:47:40.214Z,100.00
2022-08-09T03:50:13.878Z,100.00
2022-08-09T03:52:46.169Z,100.00
2022-08-09T03:55:14.322Z,100.00
2022-08-09T03:57:44.712Z,100.00
2022-08-09T04:00:29.258Z,100.00
2022-08-09T04:02:58.984Z,100.00
2022-08-09T04:05:27.741Z,100.00
2022-08-09T04:07:56.910Z,100.00
2022-08-09T04:10:29.719Z,100.00
2022-08-09T04:13:01.202Z,100.00
2022-08-09T04:15:42.538Z,100.00
2022-08-09T04:18:17.975Z,100.00
2022-08-09T04:20:50.182Z,100.00
2022-08-09T04:23:23.429Z,100.00
2022-08-09T04:25:52.958Z,100.00
2022-08-09T04:28:34.190Z,100.00
2022-08-09T04:31:07.624Z,100.00
2022-08-09T04:33:51.776Z,100.00
2022-08-09T04:36:24.427Z,100.00
2022-08-09T04:38:51.195Z,100.00
2022-08-09T04:41:18.842Z,94.57
2022-08-09T04:43:53.784Z,87.13
2022-08-09T04:46:37.987Z,80.20
2022-08-09T04:49:30.296Z,73.79
2022-08-09T04:52:07.381Z,72.85
2022-08-09T04:54:34.168Z,70.99
2022-08-09T04:57:00.773Z,68.02
2022-08-09T04:59:30.780Z,68.70
2022-08-09T05:01:57.324Z,66.92
2022-08-09T05:04:23.936Z,67.45
2022-08-09T05:06:58.420Z,64.17
2022-08-09T05:09:25.521Z,62.54
2022-08-09T05:12:09.524Z,62.41
2022-08-09T05:14:38.753Z,62.52
2022-08-09T05:18:39.387Z,60.02
2022-08-09T05:19:56.573Z,58.38
2022-08-09T05:22:33.573Z,57.96
2022-08-09T05:25:11.127Z,56.25
2022-08-09T05:27:38.935Z,56.97
2022-08-09T05:30:14.307Z,55.60
2022-08-09T05:32:42.038Z,52.83
2022-08-09T05:35:11.348Z,53.03
2022-08-09T05:37:47.974Z,50.74
2022-08-09T05:40:17.259Z,50.31
2022-08-09T05:42:45.213Z,49.11
2022-08-09T05:45:14.311Z,49.44
2022-08-09T05:47:51.717Z,48.97
2022-08-09T05:50:30.022Z,44.87
2022-08-09T05:53:02.198Z,46.84
2022-08-09T05:55:28.855Z,47.28
2022-08-09T05:57:58.514Z,45.95
2022-08-09T06:00:28.886Z,46.20
2022-08-09T06:02:59.917Z,45.84
2022-08-09T06:05:30.654Z,45.91
2022-08-09T06:08:19.387Z,44.72
2022-08-09T06:10:51.573Z,43.27
2022-08-09T06:13:20.877Z,40.93
2022-08-09T06:15:51.783Z,39.45
2022-08-09T06:18:24.256Z,36.30
2022-08-09T06:20:57.870Z,37.18
2022-08-09T06:23:54.988Z,37.49
2022-08-09T06:26:15.031Z,36.82
2022-08-09T06:28:47.247Z,37.23
2022-08-09T06:31:13.773Z,36.18
2022-08-09T06:33:42.115Z,36.69
2022-08-09T06:36:15.389Z,34.63
2022-08-09T06:38:47.214Z,33.10
2022-08-09T06:41:19.245Z,35.37
2022-08-09T06:43:48.220Z,35.24
2022-08-09T06:46:39.998Z,34.51
2022-08-09T06:49:02.709Z,30.80
2022-08-09T06:51:29.270Z,30.66
2022-08-09T06:54:01.019Z,32.27
2022-08-09T06:56:31.143Z,31.39
2022-08-09T07:00:54.991Z,32.49
2022-08-09T07:01:54.763Z,29.85
2022-08-09T07:04:30.814Z,28.55
2022-08-09T07:07:00.544Z,28.75
2022-08-09T07:09:55.370Z,29.74
2022-08-09T07:12:17.973Z,27.44
2022-08-09T07:14:50.807Z,28.95
2022-08-09T07:17:18.831Z,29.67
2022-08-09T07:19:48.065Z,31.88
2022-08-09T07:22:18.214Z,27.55
2022-08-09T07:24:49.628Z,30.58
2022-08-09T07:27:26.783Z,28.18
2022-08-09T07:30:02.196Z,26.56
2022-08-09T07:32:32.632Z,28.19
2022-08-09T07:35:11.674Z,26.14
2022-08-09T07:37:45.730Z,28.24
2022-08-09T07:40:17.577Z,27.76
2022-08-09T07:42:59.055Z,28.14
2022-08-09T07:45:37.828Z,29.03
2022-08-09T07:48:06.188Z,26.76
2022-08-09T07:50:36.498Z,27.65
2022-08-09T07:53:05.285Z,29.93
2022-08-09T07:55:41.651Z,26.40
2022-08-09T07:58:21.596Z,27.67
2022-08-09T08:00:55.572Z,24.68
2022-08-09T08:03:26.779Z,27.03
2022-08-09T08:05:58.014Z,23.67
2022-08-09T08:08:59.895Z,23.86
2022-08-09T08:12:09.004Z,25.22
2022-08-09T08:13:59.059Z,28.55
2022-08-09T08:16:31.904Z,28.02
2022-08-09T08:18:59.733Z,24.65
2022-08-09T08:21:30.695Z,23.57
2022-08-09T08:23:57.282Z,26.21
2022-08-09T08:26:55.022Z,25.07
2022-08-09T08:29:14.993Z,27.10
2022-08-09T08:32:02.411Z,25.44
2022-08-09T08:34:30.705Z,25.16
2022-08-09T08:37:01.370Z,26.00
2022-08-09T08:39:28.217Z,25.29
2022-08-09T08:41:55.242Z,24.40
2022-08-09T08:44:29.174Z,24.20
2022-08-09T08:46:59.606Z,25.46
2022-08-09T08:49:38.896Z,26.63
2022-08-09T08:52:34.979Z,26.34
2022-08-09T08:55:03.905Z,23.41
2022-08-09T08:57:35.339Z,24.55
2022-08-09T09:00:12.769Z,25.07
2022-08-09T09:02:49.969Z,23.36
2022-08-09T09:05:57.573Z,26.56
2022-08-09T09:08:31.009Z,25.02
2022-08-09T09:11:06.289Z,22.45
2022-08-09T09:13:55.107Z,23.74
2022-08-09T09:16:30.475Z,25.25
2022-08-09T09:19:40.167Z,23.03
2022-08-09T09:22:11.793Z,22.88
2022-08-09T09:24:51.395Z,24.79
2022-08-09T09:28:05.360Z,23.42
2022-08-09T09:30:38.039Z,24.61
2022-08-09T09:33:02.931Z,22.25
2022-08-09T09:36:01.018Z,22.98
2022-08-09T09:38:47.548Z,24.08
2022-08-09T09:41:23.193Z,25.14
2022-08-09T09:44:12.572Z,25.15
2022-08-09T09:46:42.840Z,23.99
2022-08-09T09:49:12.526Z,23.83
2022-08-09T09:51:40.456Z,25.04
2022-08-09T09:54:20.312Z,23.03
2022-08-09T09:56:53.272Z,22.60
2022-08-09T09:59:36.179Z,22.94
2022-08-09T10:02:02.687Z,24.94
2022-08-09T10:04:30.760Z,22.88
2022-08-09T10:06:58.156Z,24.63
2022-08-09T10:09:26.165Z,22.69
2022-08-09T10:12:14.455Z,23.18
2022-08-09T10:14:50.064Z,24.93
2022-08-09T10:17:51.025Z,23.21
2022-08-09T10:20:26.908Z,23.70
2022-08-09T10:23:12.462Z,23.80
2022-08-09T10:26:08.126Z,24.35
2022-08-09T10:28:32.165Z,23.42
2022-08-09T10:34:09.637Z,24.20
2022-08-09T10:36:32.750Z,23.77
2022-08-09T10:39:15.735Z,24.32
2022-08-09T10:41:47.821Z,21.68
2022-08-09T10:44:18.483Z,23.13
2022-08-09T10:48:16.735Z,20.99
2022-08-09T10:50:27.022Z,21.14
2022-08-09T10:53:28.077Z,21.99
2022-08-09T10:56:23.326Z,24.74
2022-08-09T10:59:00.374Z,23.88
2022-08-09T11:03:06.561Z,22.93
2022-08-09T11:04:31.653Z,21.66
2022-08-09T11:07:00.052Z,23.11
2022-08-09T11:09:53.682Z,21.87
2022-08-09T11:12:29.730Z,22.00
2022-08-09T11:15:23.922Z,21.63
2022-08-09T11:18:02.952Z,22.25
2022-08-09T11:20:56.769Z,22.87
2022-08-09T11:23:30.142Z,23.09
2022-08-09T11:25:56.991Z,22.29
2022-08-09T11:28:38.495Z,23.82
2022-08-09T11:31:43.598Z,25.20
2022-08-09T11:34:43.993Z,23.21
2022-08-09T11:37:22.999Z,21.10
2022-08-09T11:40:08.353Z,23.98
2022-08-09T11:42:45.904Z,22.15
2022-08-09T11:45:42.179Z,21.41
2022-08-09T11:48:19.427Z,23.03
2022-08-09T11:52:56.595Z,23.09
2022-08-09T11:54:01.257Z,21.87
2022-08-09T11:56:42.832Z,21.76
2022-08-09T11:59:29.898Z,23.09
2022-08-09T12:02:34.325Z,23.83
2022-08-09T12:04:46.629Z,23.24
2022-08-09T12:07:14.268Z,22.95
2022-08-09T12:09:50.686Z,22.46
2022-08-09T12:12:20.177Z,21.66
2022-08-09T12:15:07.731Z,23.79
2022-08-09T12:17:43.419Z,24.53
2022-08-09T12:20:22.440Z,23.33
2022-08-09T12:22:56.323Z,23.85
2022-08-09T12:25:36.722Z,23.82
2022-08-09T12:29:12.697Z,22.74
2022-08-09T12:31:58.154Z,23.95
2022-08-09T12:34:17.806Z,23.36
2022-08-09T12:36:52.343Z,22.24
2022-08-09T12:39:26.117Z,23.24
2022-08-09T12:41:54.242Z,25.13
2022-08-09T12:44:24.550Z,25.34
2022-08-09T12:46:52.908Z,22.77
2022-08-09T12:49:21.347Z,22.38
2022-08-09T12:52:02.611Z,22.75
2022-08-09T12:54:47.747Z,23.88
2022-08-09T12:57:46.527Z,23.19
2022-08-09T13:00:25.952Z,23.19
2022-08-09T13:02:55.228Z,23.76
2022-08-09T13:05:25.356Z,22.96
2022-08-09T13:08:15.163Z,23.48
2022-08-09T13:10:59.552Z,23.01
2022-08-09T13:14:41.698Z,23.22
2022-08-09T13:16:46.141Z,24.31
2022-08-09T13:19:26.236Z,25.47
2022-08-09T13:22:37.280Z,22.64
2022-08-09T13:25:04.237Z,23.89
2022-08-09T13:27:40.164Z,24.14
2022-08-09T13:31:10.886Z,26.07
2022-08-09T13:33:11.717Z,24.24
2022-08-09T13:36:39.144Z,27.58
2022-08-09T13:38:56.052Z,25.40
2022-08-09T13:41:57.741Z,25.53
2022-08-09T13:44:13.722Z,25.65
2022-08-09T13:47:29.234Z,26.71
2022-08-09T13:49:37.753Z,26.92
2022-08-09T13:52:09.083Z,28.63
2022-08-09T13:54:36.583Z,28.44
2022-08-09T13:57:14.397Z,28.85
2022-08-09T13:59:58.062Z,28.51
2022-08-09T14:02:25.757Z,29.04
2022-08-09T14:04:59.607Z,28.75
2022-08-09T14:07:30.274Z,30.78
2022-08-09T14:10:17.172Z,31.67
2022-08-09T14:12:44.309Z,31.63
2022-08-09T14:15:19.618Z,32.05
2022-08-09T14:18:18.844Z,32.46
2022-08-09T14:20:44.864Z,32.49
2022-08-09T14:23:20.270Z,32.13
2022-08-09T14:26:05.826Z,31.53
2022-08-09T14:28:33.225Z,31.42
2022-08-09T14:30:59.720Z,32.69
2022-08-09T14:33:26.261Z,32.58
2022-08-09T14:35:53.357Z,32.26
2022-08-09T14:38:20.208Z,33.58
2022-08-09T14:41:02.222Z,34.17
2022-08-09T14:43:47.699Z,34.95
2022-08-09T14:46:55.973Z,33.77
2022-08-09T14:49:06.699Z,33.95
2022-08-09T14:51:41.991Z,33.71
2022-08-09T14:54:09.821Z,33.05
2022-08-09T14:56:57.947Z,32.96
2022-08-09T14:59:23.622Z,33.91
2022-08-09T15:01:50.404Z,33.56
2022-08-09T15:04:16.949Z,33.46
2022-08-09T15:06:49.673Z,33.87
2022-08-09T15:10:03.263Z,34.45
2022-08-09T15:12:05.413Z,34.53
2022-08-09T15:14:38.603Z,34.78
2022-08-09T15:17:08.896Z,35.19
2022-08-09T15:19:36.820Z,34.95
2022-08-09T15:22:03.961Z,35.54
2022-08-09T15:24:32.126Z,35.27
2022-08-09T15:26:59.431Z,35.84
2022-08-09T15:30:59.470Z,35.03
2022-08-09T15:32:28.662Z,35.72
2022-08-09T15:35:00.329Z,35.80
2022-08-09T15:37:56.217Z,36.69
2022-08-09T15:40:32.091Z,35.74
2022-08-09T15:42:59.583Z,35.76
2022-08-09T15:45:29.280Z,35.49
2022-08-09T15:48:05.062Z,36.02
2022-08-09T15:50:39.357Z,36.54
2022-08-09T15:53:32.677Z,35.13
2022-08-09T15:56:21.172Z,35.18
2022-08-09T15:58:44.748Z,34.97
2022-08-09T16:01:13.678Z,34.32
2022-08-09T16:03:41.683Z,35.17
2022-08-09T16:06:32.727Z,35.13
2022-08-09T16:08:56.763Z,34.42
2022-08-09T16:11:28.720Z,34.11
2022-08-09T16:14:03.551Z,34.54
2022-08-09T16:16:33.271Z,34.77
2022-08-09T16:19:01.406Z,35.20
2022-08-09T16:21:31.601Z,34.46
2022-08-09T16:24:02.243Z,34.43
2022-08-09T16:26:33.518Z,35.21
2022-08-09T16:29:10.588Z,34.59
2022-08-09T16:32:18.038Z,35.04
2022-08-09T16:34:54.845Z,34.94
2022-08-09T16:37:50.546Z,34.96
2022-08-09T16:40:08.015Z,35.24
2022-08-09T16:42:35.383Z,35.41
2022-08-09T16:45:02.486Z,36.00
2022-08-09T16:48:41.092Z,35.16
2022-08-09T16:50:29.341Z,35.47
2022-08-09T16:52:58.076Z,35.57
2022-08-09T16:55:24.775Z,35.52
2022-08-09T16:58:10.103Z,35.90
2022-08-09T17:00:42.705Z,36.21
2022-08-09T17:03:20.912Z,36.34
2022-08-09T17:06:02.875Z,36.12
2022-08-09T17:08:43.401Z,36.54
2022-08-09T17:11:24.790Z,36.82
2022-08-09T17:14:04.236Z,37.17
2022-08-09T17:16:30.834Z,37.33
2022-08-09T17:19:05.265Z,37.71
2022-08-09T17:21:32.063Z,37.89
2022-08-09T17:24:27.572Z,37.94
2022-08-09T17:26:47.728Z,38.78
2022-08-09T17:29:20.958Z,38.54
2022-08-09T17:31:49.206Z,38.58
2022-08-09T17:35:01.364Z,38.79
2022-08-09T17:37:02.902Z,39.15
2022-08-09T17:39:52.822Z,39.12
2022-08-09T17:42:41.066Z,39.43
2022-08-09T17:45:06.790Z,39.56
2022-08-09T17:47:54.773Z,40.04
2022-08-09T17:50:24.916Z,40.64
2022-08-09T17:53:19.337Z,41.25
2022-08-09T17:55:55.323Z,41.16
2022-08-09T17:58:26.817Z,42.11
2022-08-09T18:00:54.971Z,41.65
2022-08-09T18:03:24.281Z,41.82
2022-08-09T18:05:53.285Z,42.25
2022-08-09T18:08:22.056Z,42.63
2022-08-09T18:11:02.159Z,42.48
2022-08-09T18:13:43.118Z,42.71
2022-08-09T18:16:29.211Z,43.48
2022-08-09T18:18:59.446Z,43.55
2022-08-09T18:21:31.882Z,44.27
2022-08-09T18:24:14.526Z,44.79
2022-08-09T18:26:46.482Z,44.63
2022-08-09T18:30:40.976Z,45.33
2022-08-09T18:32:05.542Z,45.43
2022-08-09T18:34:35.738Z,45.54
2022-08-09T18:37:10.511Z,45.52
2022-08-09T18:39:52.648Z,45.95
2022-08-09T18:42:19.211Z,46.37
2022-08-09T18:44:47.858Z,46.85
2022-08-09T18:47:16.766Z,47.25
2022-08-09T18:49:47.508Z,48.19
2022-08-09T18:52:24.817Z,47.72
2022-08-09T18:55:05.041Z,48.07
2022-08-09T18:57:42.718Z,48.54
2022-08-09T19:00:11.253Z,48.78
2022-08-09T19:02:43.427Z,48.83
2022-08-09T19:05:20.452Z,49.25
2022-08-09T19:08:04.211Z,50.13
2022-08-09T19:10:39.595Z,50.38
2022-08-09T19:13:22.351Z,51.15
2022-08-09T19:15:59.661Z,52.38
2022-08-09T19:18:35.175Z,52.28
2022-08-09T19:21:09.650Z,53.58
2022-08-09T19:24:32.820Z,54.57
2022-08-09T19:26:35.012Z,54.78
2022-08-09T19:29:15.699Z,56.54
2022-08-09T19:31:49.582Z,59.07
2022-08-09T19:34:23.110Z,60.45
2022-08-09T19:36:53.013Z,62.23
2022-08-09T19:39:43.553Z,64.88
2022-08-09T19:42:07.306Z,67.38
2022-08-09T19:44:33.846Z,68.64
2022-08-09T19:47:01.501Z,69.85
2022-08-09T19:50:06.999Z,70.96
2022-08-09T19:52:15.385Z,72.99
2022-08-09T19:54:44.734Z,73.58
2022-08-09T19:57:11.352Z,74.88
2022-08-09T19:59:58.443Z,77.03
2022-08-09T20:04:26.108Z,77.32
2022-08-09T20:05:15.029Z,78.21
2022-08-09T20:08:00.167Z,78.31
2022-08-09T20:10:34.445Z,78.88
2022-08-09T20:13:04.908Z,80.17
2022-08-09T20:16:34.502Z,81.85
2022-08-09T20:18:19.675Z,83.52
2022-08-09T20:20:47.757Z,83.73
2022-08-09T20:23:21.106Z,83.56
2022-08-09T20:25:52.584Z,84.79
2022-08-09T20:28:31.995Z,86.19
2022-08-09T20:31:05.451Z,87.69
2022-08-09T20:33:39.252Z,88.31
2022-08-09T20:36:10.563Z,89.27
2022-08-09T20:41:35.559Z,91.47
2022-08-09T20:44:06.824Z,92.13
2022-08-09T20:46:44.466Z,92.47
2022-08-09T20:49:16.764Z,93.00
2022-08-09T20:51:50.881Z,93.72
2022-08-09T20:54:19.973Z,93.24
2022-08-09T20:56:49.638Z,93.04
2022-08-09T20:59:49.939Z,92.49
2022-08-09T21:02:08.700Z,92.19
2022-08-09T21:05:50.797Z,92.61
2022-08-09T21:07:30.316Z,93.65
2022-08-09T21:10:08.198Z,95.44
2022-08-09T21:12:37.641Z,98.29
2022-08-09T21:15:12.674Z,99.32
2022-08-09T21:18:29.861Z,100.00
2022-08-09T21:20:29.857Z,100.00
2022-08-09T21:22:57.621Z,99.83
2022-08-09T21:25:44.338Z,98.90
2022-08-09T21:28:34.209Z,99.48
2022-08-09T21:31:16.563Z,99.27
2022-08-09T21:33:45.560Z,100.00
2022-08-09T21:36:18.127Z,100.00
2022-08-09T21:38:45.559Z,100.00
2022-08-09T21:41:17.933Z,100.00
2022-08-09T21:43:56.935Z,99.21
2022-08-09T21:46:24.897Z,99.26
2022-08-09T21:48:52.748Z,100.00
2022-08-09T21:51:24.346Z,100.00
2022-08-09T21:54:02.707Z,100.00
2022-08-09T21:56:43.295Z,100.00
2022-08-09T21:59:16.268Z,100.00
2022-08-09T22:02:00.631Z,100.00
2022-08-09T22:04:55.375Z,100.00
2022-08-09T22:07:23.351Z,100.00
2022-08-09T22:10:08.099Z,100.00
2022-08-09T22:12:38.021Z,100.00
2022-08-09T22:15:07.742Z,100.00
2022-08-09T22:17:46.327Z,100.00
2022-08-09T22:20:17.049Z,100.00
2022-08-09T22:22:53.718Z,100.00
2022-08-09T22:26:06.103Z,100.00
2022-08-09T22:28:07.366Z,100.00
2022-08-09T22:30:34.137Z,100.00
2022-08-09T22:33:00.677Z,100.00
2022-08-09T22:36:01.682Z,100.00
2022-08-09T22:38:15.640Z,100.00
2022-08-09T22:40:49.087Z,100.00
2022-08-09T22:44:02.797Z,100.00
2022-08-09T22:48:13.139Z,100.00
2022-08-09T22:49:01.804Z,100.00
2022-08-09T22:51:38.088Z,100.00
2022-08-09T22:54:08.277Z,100.00
2022-08-09T22:56:41.308Z,100.00
2022-08-09T22:59:58.161Z,100.00
2022-08-09T23:01:55.768Z,100.00
2022-08-09T23:04:22.457Z,100.00
2022-08-09T23:07:11.513Z,100.00
2022-08-09T23:09:40.837Z,100.00
2022-08-09T23:12:08.254Z,100.00
2022-08-09T23:14:41.465Z,100.00
2022-08-09T23:17:09.619Z,100.00
2022-08-09T23:20:00.550Z,100.00
2022-08-09T23:22:24.124Z,100.00
2022-08-09T23:24:50.663Z,100.00
2022-08-09T23:27:19.183Z,100.00
2022-08-09T23:29:45.743Z,100.00
2022-08-09T23:32:13.057Z,100.00
2022-08-09T23:34:39.675Z,100.00
2022-08-09T23:37:06.643Z,100.00
2022-08-09T23:39:33.876Z,100.00
2022-08-09T23:42:00.448Z,100.00
2022-08-09T23:44:27.068Z,100.00
2022-08-09T23:46:57.543Z,100.00
2022-08-09T23:49:25.870Z,100.00
2022-08-09T23:51:53.596Z,100.00
2022-08-09T23:54:21.000Z,100.00
2022-08-09T23:56:56.394Z,100.00
2022-08-09T23:59:46.552Z,100.00
